Time;durP1;ratioP1;P1;durP2;ratioP2;P2;SDS_P1;SDS_P2;PMS_P1;PMS_P2;Temp;Humidity;BMP_temperature;BMP_pressure;BME280_temperature;BME280_humidity;BME280_pressure;Samples;Min_cycle;Max_cycle;Signal;HPM_P1;HPM_P2
2023/10/09 00:00:55;;;;;;;1.77;1.10;;;;;;;14.21;85.92;100917.31;4993622;28;20266;-82
2023/10/09 00:03:23;;;;;;;1.47;1.13;;;;;;;14.21;86.02;100905.06;4994209;28;20207;-82
2023/10/09 00:05:53;;;;;;;1.60;0.83;;;;;;;14.22;85.67;100898.03;4993520;28;20230;-81
2023/10/09 00:08:22;;;;;;;1.07;0.97;;;;;;;14.19;85.64;100898.09;4993053;28;20224;-82
2023/10/09 00:10:54;;;;;;;1.70;1.10;;;;;;;14.21;86.01;100891.94;4992875;28;20235;-83
2023/10/09 00:13:23;;;;;;;1.40;1.17;;;;;;;14.17;86.96;100873.66;4992569;28;20210;-81
2023/10/09 00:15:53;;;;;;;2.03;1.10;;;;;;;14.18;86.46;100864.88;4993447;28;20208;-82
2023/10/09 00:18:28;;;;;;;1.07;0.90;;;;;;;14.22;85.08;100891.00;4993243;28;20207;-82
2023/10/09 00:20:55;;;;;;;3.90;1.17;;;;;;;14.20;84.44;100899.84;4993140;28;20744;-81
2023/10/09 00:23:25;;;;;;;1.53;0.90;;;;;;;14.24;84.86;100885.72;4993320;28;20207;-81
2023/10/09 00:26:08;;;;;;;2.47;1.00;;;;;;;14.19;85.26;100874.47;4993737;28;20266;-81
2023/10/09 00:28:35;;;;;;;1.40;1.13;;;;;;;14.18;85.19;100854.38;4993578;28;20681;-82
2023/10/09 00:31:06;;;;;;;3.00;1.00;;;;;;;14.21;85.26;100854.28;4993107;28;20238;-80
2023/10/09 00:33:33;;;;;;;1.43;0.90;;;;;;;14.21;84.70;100865.69;4992296;28;20209;-82
2023/10/09 00:36:09;;;;;;;2.00;1.00;;;;;;;14.21;85.29;100851.66;4993659;28;20231;-81
2023/10/09 00:38:36;;;;;;;1.93;1.20;;;;;;;14.24;85.90;100830.59;4993544;28;20225;-82
2023/10/09 00:41:10;;;;;;;2.80;1.10;;;;;;;14.24;85.61;100810.44;4993489;28;20235;-80
2023/10/09 00:43:37;;;;;;;1.87;1.10;;;;;;;14.25;85.56;100817.41;4993361;28;20234;-81
2023/10/09 00:46:12;;;;;;;1.47;1.27;;;;;;;14.20;85.35;100829.81;4993593;28;20220;-81
2023/10/09 00:48:40;;;;;;;1.47;1.10;;;;;;;14.21;85.49;100822.78;4993466;28;20237;-81
2023/10/09 00:51:16;;;;;;;1.63;1.10;;;;;;;14.23;85.31;100824.47;4993638;28;20991;-81
2023/10/09 00:53:45;;;;;;;2.50;1.20;;;;;;;14.25;85.28;100812.16;4994022;28;20218;-81
2023/10/09 00:56:18;;;;;;;3.73;1.37;;;;;;;14.26;85.50;100802.53;4993292;28;20220;-80
2023/10/09 00:58:46;;;;;;;1.60;1.50;;;;;;;14.20;85.55;100802.69;4993051;28;20226;-81
2023/10/09 01:01:16;;;;;;;1.57;1.10;;;;;;;14.21;85.15;100804.41;4993034;28;20258;-81
2023/10/09 01:03:44;;;;;;;1.47;1.00;;;;;;;14.23;85.29;100805.22;4993358;28;20301;-82
2023/10/09 01:06:20;;;;;;;1.20;1.10;;;;;;;14.23;85.75;100784.22;4993421;28;20218;-81
2023/10/09 01:08:56;;;;;;;1.30;1.20;;;;;;;14.24;86.35;100767.56;4994192;28;20233;-81
2023/10/09 01:11:29;;;;;;;1.87;1.40;;;;;;;14.24;87.17;100733.44;4994020;28;20237;-82
2023/10/09 01:14:11;;;;;;;1.90;0.93;;;;;;;14.23;87.03;100727.31;4992952;28;20218;-81
2023/10/09 01:16:42;;;;;;;2.60;1.33;;;;;;;14.22;86.89;100730.84;4993455;28;20206;-81
2023/10/09 01:19:19;;;;;;;4.00;1.97;;;;;;;14.21;86.63;100750.16;4997181;28;20245;-81
2023/10/09 01:21:46;;;;;;;1.60;1.40;;;;;;;14.21;86.53;100763.28;4998667;28;20215;-80
2023/10/09 01:24:16;;;;;;;2.70;2.13;;;;;;;14.25;87.29;100756.16;4999020;28;20202;-80
2023/10/09 01:26:46;;;;;;;2.10;1.80;;;;;;;14.33;87.13;100763.81;4998839;28;20195;-80
2023/10/09 01:29:16;;;;;;;2.30;2.10;;;;;;;14.34;86.52;100763.75;4998754;28;20301;-80
2023/10/09 01:31:51;;;;;;;4.07;2.40;;;;;;;14.37;86.27;100773.31;4999145;28;20240;-81
2023/10/09 01:34:19;;;;;;;3.33;1.67;;;;;;;14.41;86.14;100774.94;4998575;28;20261;-80
2023/10/09 01:36:48;;;;;;;3.20;2.10;;;;;;;14.47;86.54;100774.78;4991664;28;20217;-81
2023/10/09 01:39:23;;;;;;;2.37;1.93;;;;;;;14.50;86.98;100757.13;4997498;28;20222;-80
2023/10/09 01:41:52;;;;;;;4.00;1.77;;;;;;;14.51;87.06;100750.16;4994457;28;20667;-82
2023/10/09 01:44:18;;;;;;;5.30;1.77;;;;;;;14.53;87.27;100758.84;4991325;28;20727;-81
2023/10/09 01:46:46;;;;;;;4.00;2.33;;;;;;;14.52;87.25;100743.97;4992708;28;20211;-81
2023/10/09 01:49:21;;;;;;;5.37;2.10;;;;;;;14.52;86.49;100764.13;4992070;28;20207;-82
2023/10/09 01:51:48;;;;;;;2.53;1.90;;;;;;;14.43;86.52;100763.50;4993498;28;20240;-82
2023/10/09 01:54:33;;;;;;;2.57;1.90;;;;;;;14.45;86.94;100759.06;4992207;28;20225;-82
2023/10/09 01:57:05;;;;;;;3.33;2.20;;;;;;;14.41;87.40;100749.56;4996913;28;20190;-81
2023/10/09 01:59:32;;;;;;;3.13;1.87;;;;;;;14.48;86.80;100755.47;4997903;28;20217;-81
2023/10/09 02:02:00;;;;;;;2.80;2.30;;;;;;;14.48;86.30;100760.72;4998493;28;20214;-81
2023/10/09 02:04:28;;;;;;;4.10;1.80;;;;;;;14.49;86.17;100749.34;4998464;28;20188;-80
2023/10/09 02:06:55;;;;;;;2.10;1.80;;;;;;;14.48;86.33;100744.97;4998097;28;20198;-80
2023/10/09 02:09:30;;;;;;;4.47;1.77;;;;;;;14.48;86.48;100719.56;4992989;28;20402;-82
2023/10/09 02:11:57;;;;;;;4.63;1.80;;;;;;;14.43;86.82;100712.72;4991935;28;20227;-81
2023/10/09 02:14:25;;;;;;;3.37;2.00;;;;;;;14.41;87.85;100694.41;4991098;28;20271;-80
2023/10/09 02:17:03;;;;;;;2.43;2.17;;;;;;;14.38;87.99;100691.84;4991652;28;20226;-82
2023/10/09 02:19:34;;;;;;;3.60;2.10;;;;;;;14.41;88.52;100662.88;4991797;28;20272;-81
2023/10/09 02:22:02;;;;;;;2.27;2.07;;;;;;;14.34;89.06;100650.84;4991959;28;20231;-82
2023/10/09 02:24:50;;;;;;;4.20;2.00;;;;;;;14.34;89.34;100650.84;4990916;28;20202;-82
2023/10/09 02:27:39;;;;;;;1.87;1.67;;;;;;;14.39;89.68;100619.16;4991439;28;20234;-83
2023/10/09 02:30:19;;;;;;;2.07;1.87;;;;;;;14.38;90.33;100592.06;4992924;28;20234;-82
2023/10/09 02:32:49;;;;;;;3.30;2.07;;;;;;;14.35;91.43;100572.91;4992044;28;20221;-82
2023/10/09 02:35:38;;;;;;;3.27;2.43;;;;;;;14.38;91.21;100564.94;4991083;28;20224;-82
2023/10/09 02:38:07;;;;;;;2.13;1.93;;;;;;;14.35;90.92;100562.41;4984005;28;20207;-82
2023/10/09 02:40:41;;;;;;;2.20;2.00;;;;;;;14.26;91.37;100553.94;4992673;28;20195;-82
2023/10/09 02:43:12;;;;;;;3.37;2.03;;;;;;;14.26;91.89;100530.28;4991871;28;20266;-82
2023/10/09 02:45:50;;;;;;;3.20;2.17;;;;;;;14.30;92.07;100510.91;4992773;28;20217;-81
2023/10/09 02:48:19;;;;;;;2.67;2.20;;;;;;;14.23;92.38;100516.41;4985239;28;20193;-81
2023/10/09 02:50:46;;;;;;;4.67;2.30;;;;;;;14.28;91.99;100515.34;4991488;28;20324;-82
2023/10/09 02:53:18;;;;;;;5.33;3.37;;;;;;;14.29;92.24;100519.69;4993377;28;20213;-80
2023/10/09 02:56:01;;;;;;;5.93;3.53;;;;;;;14.32;92.46;100510.84;4991768;28;20725;-80
2023/10/09 02:58:28;;;;;;;4.27;3.13;;;;;;;14.33;93.39;100498.56;4994398;28;20214;-82
2023/10/09 03:00:56;;;;;;;8.03;3.53;;;;;;;14.35;93.68;100497.63;4994214;28;20235;-82
2023/10/09 03:03:23;;;;;;;5.27;2.23;;;;;;;14.32;93.83;100481.97;4994764;28;20226;-81
2023/10/09 03:05:49;;;;;;;4.07;2.10;;;;;;;14.29;94.27;100474.19;4994662;28;20230;-81
2023/10/09 03:08:19;;;;;;;4.33;2.27;;;;;;;14.27;94.62;100465.50;4994998;28;20209;-79
2023/10/09 03:10:46;;;;;;;4.33;2.60;;;;;;;14.35;94.78;100462.63;4994632;28;20259;-80
2023/10/09 03:13:14;;;;;;;3.30;2.30;;;;;;;14.38;94.99;100454.66;4993993;28;20200;-81
2023/10/09 03:15:42;;;;;;;3.77;2.30;;;;;;;14.34;95.25;100455.66;4995308;28;20207;-81
2023/10/09 03:18:13;;;;;;;3.93;2.50;;;;;;;14.37;95.11;100450.28;4987543;28;20204;-81
2023/10/09 03:20:41;;;;;;;4.43;2.57;;;;;;;14.36;95.10;100448.59;4995390;28;20227;-82
2023/10/09 03:23:09;;;;;;;4.43;2.70;;;;;;;14.39;95.50;100441.47;4994853;28;20234;-82
2023/10/09 03:25:37;;;;;;;3.87;2.73;;;;;;;14.36;96.03;100423.19;4994917;28;20218;-81
2023/10/09 03:28:05;;;;;;;3.20;2.73;;;;;;;14.38;96.31;100408.22;4993599;28;20228;-81
2023/10/09 03:30:34;;;;;;;4.13;2.33;;;;;;;14.39;96.49;100417.84;4994499;28;20238;-82
2023/10/09 03:33:02;;;;;;;5.73;3.37;;;;;;;14.38;96.79;100407.38;4994643;28;20208;-81
2023/10/09 03:35:34;;;;;;;4.57;3.90;;;;;;;14.41;96.80;100384.50;4994471;28;20213;-81
2023/10/09 03:38:11;;;;;;;6.00;4.70;;;;;;;14.43;96.79;100389.66;4994135;28;20215;-82
2023/10/09 03:40:39;;;;;;;9.10;6.37;;;;;;;14.45;97.70;100372.13;4994386;28;20253;-81
2023/10/09 03:43:06;;;;;;;10.03;7.67;;;;;;;14.46;98.10;100356.28;4993711;28;20210;-81
2023/10/09 03:45:35;;;;;;;13.90;9.23;;;;;;;14.52;98.41;100339.44;4994239;28;20211;-80
2023/10/09 03:48:08;;;;;;;11.40;9.00;;;;;;;14.53;99.25;100333.28;4994092;28;20675;-80
2023/10/09 03:50:37;;;;;;;15.43;10.47;;;;;;;14.47;100.00;100323.88;4994312;28;20242;-82
2023/10/09 03:53:07;;;;;;;15.50;11.30;;;;;;;14.53;100.00;100309.66;4993753;28;20216;-82
2023/10/09 03:55:35;;;;;;;17.20;10.50;;;;;;;14.50;100.00;100302.72;4994956;28;20226;-82
2023/10/09 03:58:02;;;;;;;18.17;10.80;;;;;;;14.49;100.00;100282.66;4992952;28;20271;-82
2023/10/09 04:00:31;;;;;;;19.03;10.67;;;;;;;14.57;100.00;100271.88;4993053;28;20209;-80
2023/10/09 04:02:58;;;;;;;13.67;11.33;;;;;;;14.67;100.00;100267.97;4993300;28;20226;-81
2023/10/09 04:05:26;;;;;;;14.03;11.43;;;;;;;14.73;100.00;100279.16;4993523;28;20219;-79
2023/10/09 04:07:58;;;;;;;19.30;11.83;;;;;;;14.82;100.00;100286.69;4993678;28;20226;-81
2023/10/09 04:10:43;;;;;;;19.30;12.57;;;;;;;14.87;100.00;100297.88;4993834;28;20230;-81
2023/10/09 04:13:12;;;;;;;13.57;11.43;;;;;;;14.85;100.00;100297.94;4993049;28;20207;-82
2023/10/09 04:15:42;;;;;;;15.83;13.30;;;;;;;14.92;100.00;100321.34;4994284;28;20528;-83
2023/10/09 04:18:15;;;;;;;23.63;13.37;;;;;;;14.94;100.00;100324.78;4992808;28;20200;-81
2023/10/09 04:21:18;;;;;;;19.93;13.47;;;;;;;14.87;100.00;100317.13;4993550;28;20673;-80
2023/10/09 04:24:09;;;;;;;14.87;13.33;;;;;;;14.84;100.00;100303.25;4989143;28;20239;-81
2023/10/09 04:26:36;;;;;;;17.00;14.40;;;;;;;14.83;100.00;100301.56;4987574;28;20251;-82
2023/10/09 04:29:03;;;;;;;20.90;14.43;;;;;;;14.83;100.00;100294.53;4992128;28;20214;-82
2023/10/09 04:31:34;;;;;;;23.97;14.50;;;;;;;14.74;100.00;100291.38;4991616;28;20227;-81
2023/10/09 04:36:47;;;;;;;23.93;16.13;;;;;;;14.81;100.00;100270.06;4989882;28;20214;-80
2023/10/09 04:39:35;;;;;;;21.03;15.63;;;;;;;14.88;100.00;100286.44;4990688;28;20208;-81
2023/10/09 04:48:06;;;;;;;28.37;18.30;;;;;;;15.02;100.00;100310.41;5208360;27;20566;-81
2023/10/09 04:51:20;;;;;;;25.80;18.33;;;;;;;15.07;100.00;100321.59;5182431;27;20204;-81
2023/10/09 04:53:54;;;;;;;26.03;19.27;;;;;;;14.85;100.00;100304.97;5174599;27;20570;-80
2023/10/09 04:56:24;;;;;;;28.27;19.97;;;;;;;14.99;100.00;100292.16;5189511;27;20211;-80
2023/10/09 04:59:03;;;;;;;23.90;19.60;;;;;;;14.97;100.00;100290.50;5190177;27;20221;-80
2023/10/09 05:01:37;;;;;;;42.03;22.93;;;;;;;14.70;100.00;100278.34;5190765;27;20283;-80
2023/10/09 05:04:15;;;;;;;32.20;21.97;;;;;;;14.88;100.00;100255.78;5190405;27;20209;-80
2023/10/09 05:06:54;;;;;;;39.80;24.77;;;;;;;14.60;100.00;100242.84;5189490;27;20227;-80
2023/10/09 05:09:21;;;;;;;36.17;23.47;;;;;;;14.72;100.00;100232.78;5190226;27;20208;-80
2023/10/09 05:14:38;;;;;;;37.37;23.67;;;;;;;14.77;100.00;100238.72;5154892;27;20200;-82
2023/10/09 05:17:04;;;;;;;43.33;25.03;;;;;;;14.81;100.00;100256.94;5177836;27;20208;-83
2023/10/09 05:19:41;;;;;;;45.80;25.43;;;;;;;14.93;100.00;100266.09;5187726;27;20264;-83
2023/10/09 05:22:29;;;;;;;42.73;25.83;;;;;;;14.66;100.00;100262.78;5172365;27;20225;-82
2023/10/09 05:24:56;;;;;;;46.17;26.57;;;;;;;14.92;100.00;100255.66;5184624;27;20236;-81
2023/10/09 05:27:45;;;;;;;39.57;25.00;;;;;;;14.95;100.00;100264.28;5187915;27;20226;-83
2023/10/09 05:30:24;;;;;;;43.97;25.07;;;;;;;14.73;100.00;100269.53;5197177;27;20210;-82
2023/10/09 05:32:55;;;;;;;50.60;27.03;;;;;;;14.64;100.00;100286.47;5187529;27;20275;-82
2023/10/09 05:35:39;;;;;;;50.93;28.57;;;;;;;14.62;100.00;100293.56;5187899;27;20202;-82
2023/10/09 05:38:14;;;;;;;53.10;27.57;;;;;;;14.71;100.00;100287.13;5186753;27;20220;-82
2023/10/09 05:40:43;;;;;;;50.80;29.00;;;;;;;14.80;100.00;100288.53;5185671;27;20316;-81
2023/10/09 05:44:29;;;;;;;44.47;27.77;;;;;;;14.82;100.00;100300.69;5185870;27;20417;-82
2023/10/09 05:46:08;;;;;;;46.07;29.37;;;;;;;14.81;100.00;100280.59;5187106;27;20212;-81
2023/10/09 05:51:42;;;;;;;49.73;29.80;;;;;;;14.72;100.00;100285.34;5088815;27;20577;-83
2023/10/09 06:08:12;;;;;;;43.70;24.90;;;;;;;14.86;100.00;100323.28;5079055;28;20207;-81
2023/10/09 06:10:40;;;;;;;43.47;25.93;;;;;;;14.62;100.00;100350.50;5078223;28;20717;-80
2023/10/09 06:13:37;;;;;;;47.87;28.67;;;;;;;14.71;100.00;100373.81;5078938;28;20559;-80
2023/10/09 06:18:53;;;;;;;51.10;28.13;;;;;;;14.49;100.00;100352.72;5081268;28;20239;-81
2023/10/09 06:21:39;;;;;;;51.77;27.87;;;;;;;14.66;100.00;100318.78;5083007;28;20358;-81
2023/10/09 06:24:15;;;;;;;50.27;27.40;;;;;;;14.74;100.00;100334.28;5086682;28;20204;-80
2023/10/09 06:26:51;;;;;;;48.60;27.87;;;;;;;14.82;100.00;100362.91;5077067;28;20223;-79
2023/10/09 06:29:34;;;;;;;45.30;28.77;;;;;;;14.93;100.00;100344.09;5076057;28;20257;-80
2023/10/09 06:34:44;;;;;;;59.23;28.73;;;;;;;14.66;100.00;100349.47;5075755;28;20232;-79
2023/10/09 06:37:34;;;;;;;53.10;30.07;;;;;;;14.74;100.00;100336.06;5076189;28;20299;-79
2023/10/09 06:42:57;;;;;;;47.33;27.83;;;;;;;14.81;100.00;100354.16;5074416;28;20210;-80
2023/10/09 06:45:43;;;;;;;53.33;27.97;;;;;;;14.99;100.00;100363.13;5075827;28;20199;-80
2023/10/09 06:48:09;;;;;;;51.97;28.97;;;;;;;14.88;100.00;100368.78;5074201;28;20212;-80
2023/10/09 06:53:20;;;;;;;45.13;27.40;;;;;;;14.91;100.00;100383.59;5074850;28;20341;-78
2023/10/09 06:55:51;;;;;;;50.30;27.93;;;;;;;14.67;100.00;100388.84;5076932;28;20208;-78
2023/10/09 06:58:26;;;;;;;52.33;27.57;;;;;;;14.89;100.00;100377.53;5074058;28;20208;-78
2023/10/09 07:00:54;;;;;;;45.50;26.73;;;;;;;14.88;100.00;100378.44;5074204;28;20227;-78
2023/10/09 07:03:29;;;;;;;42.53;25.80;;;;;;;15.08;100.00;100388.19;5062295;28;20266;-79
2023/10/09 07:06:04;;;;;;;45.33;24.93;;;;;;;15.17;100.00;100389.63;5063784;28;20207;-80
2023/10/09 07:08:32;;;;;;;39.13;24.47;;;;;;;15.24;100.00;100391.94;5062275;28;20207;-81
2023/10/09 07:11:21;;;;;;;50.73;28.23;;;;;;;15.34;100.00;100402.09;5062094;28;20246;-80
2023/10/09 07:13:53;;;;;;;45.93;25.43;;;;;;;15.30;100.00;100406.59;5057117;28;20204;-82
2023/10/09 07:16:38;;;;;;;40.60;24.93;;;;;;;15.26;100.00;100415.53;5061789;28;20218;-80
2023/10/09 07:19:24;;;;;;;38.13;23.80;;;;;;;15.39;100.00;100422.03;5062467;28;20208;-81
2023/10/09 07:21:54;;;;;;;40.50;24.50;;;;;;;15.26;100.00;100426.06;5063662;28;20711;-81
2023/10/09 07:24:24;;;;;;;39.17;23.83;;;;;;;15.37;100.00;100426.50;5060677;28;20304;-80
2023/10/09 07:26:55;;;;;;;32.90;23.30;;;;;;;15.40;100.00;100433.41;5061692;28;20215;-83
2023/10/09 07:29:22;;;;;;;33.17;22.47;;;;;;;15.41;100.00;100429.88;5059702;28;20205;-82
2023/10/09 07:31:57;;;;;;;41.17;23.80;;;;;;;15.50;100.00;100429.53;5060799;28;20836;-82
2023/10/09 07:34:52;;;;;;;34.17;23.53;;;;;;;15.43;100.00;100428.88;5060134;28;20670;-82
2023/10/09 07:37:22;;;;;;;41.63;23.43;;;;;;;15.52;100.00;100418.91;5058775;28;20206;-81
2023/10/09 07:39:57;;;;;;;41.83;24.17;;;;;;;15.49;100.00;100427.81;5059525;28;20201;-83
2023/10/09 07:42:33;;;;;;;37.50;24.03;;;;;;;15.56;100.00;100429.28;5060031;28;20219;-81
2023/10/09 07:45:11;;;;;;;38.60;22.47;;;;;;;15.61;100.00;100422.03;5059175;28;20226;-81
2023/10/09 07:48:00;;;;;;;35.50;23.77;;;;;;;15.59;100.00;100431.78;5051394;28;20208;-82
2023/10/09 07:50:37;;;;;;;39.20;23.73;;;;;;;15.65;100.00;100436.78;5058053;28;20251;-81
2023/10/09 07:53:17;;;;;;;35.67;23.40;;;;;;;15.60;100.00;100436.13;5058353;28;20585;-80
2023/10/09 07:55:54;;;;;;;35.20;24.70;;;;;;;15.56;100.00;100420.50;5059959;28;20295;-81
2023/10/09 07:58:24;;;;;;;40.67;24.93;;;;;;;15.60;100.00;100415.09;5057671;28;20623;-83
2023/10/09 08:03:34;;;;;;;35.53;23.50;;;;;;;15.67;100.00;100408.63;5059073;28;20207;-82
2023/10/09 08:06:06;;;;;;;39.40;25.00;;;;;;;15.66;100.00;100409.56;5058084;28;20222;-82
2023/10/09 08:09:16;;;;;;;39.33;24.43;;;;;;;15.69;100.00;100393.63;5051648;28;20209;-83
2023/10/09 08:11:59;;;;;;;40.83;25.43;;;;;;;15.68;100.00;100389.31;5059110;28;20779;-83
2023/10/09 08:14:42;;;;;;;35.87;24.30;;;;;;;15.65;100.00;100388.56;5057618;28;20315;-84
2023/10/09 08:17:14;;;;;;;43.70;27.70;;;;;;;15.60;100.00;100372.97;5058881;28;20269;-83
2023/10/09 08:19:53;;;;;;;36.77;25.83;;;;;;;15.54;100.00;100361.84;5059163;28;20501;-84
2023/10/09 08:25:07;;;;;;;38.30;25.50;;;;;;;15.68;100.00;100359.50;5058782;28;20206;-83
2023/10/09 08:27:53;;;;;;;43.50;28.00;;;;;;;15.69;100.00;100348.91;5058940;28;20202;-84
2023/10/09 08:30:40;;;;;;;43.40;28.13;;;;;;;15.56;100.00;100352.09;5060309;28;20258;-81
2023/10/09 08:35:48;;;;;;;44.57;28.87;;;;;;;15.54;100.00;100310.09;5057088;28;20210;-83
2023/10/09 08:38:17;;;;;;;40.97;27.70;;;;;;;15.66;100.00;100298.19;5057979;28;20303;-83
2023/10/09 08:40:46;;;;;;;48.10;29.00;;;;;;;15.60;100.00;100307.19;5057318;28;20275;-81
2023/10/09 08:43:16;;;;;;;44.50;30.03;;;;;;;15.66;100.00;100298.19;5056343;28;20582;-82
2023/10/09 08:45:46;;;;;;;52.00;30.37;;;;;;;15.60;100.00;100301.94;5057163;28;20299;-82
2023/10/09 08:48:16;;;;;;;45.03;30.40;;;;;;;15.70;100.00;100302.41;5058059;28;20686;-83
2023/10/09 08:50:43;;;;;;;37.83;28.00;;;;;;;15.75;100.00;100302.25;5058526;28;20235;-83
2023/10/09 08:53:11;;;;;;;44.87;30.30;;;;;;;15.62;100.00;100312.41;5059546;28;20197;-83
2023/10/09 08:55:38;;;;;;;48.90;29.57;;;;;;;15.65;100.00;100307.84;5072239;28;20201;-80
2023/10/09 08:58:10;;;;;;;47.97;29.00;;;;;;;15.39;100.00;100290.53;5071848;28;20211;-83
2023/10/09 09:00:43;;;;;;;45.27;30.17;;;;;;;15.37;100.00;100276.59;5071364;28;20224;-83
2023/10/09 09:03:12;;;;;;;49.93;28.33;;;;;;;15.31;100.00;100268.94;5059143;28;20209;-83
2023/10/09 09:05:38;;;;;;;43.43;27.97;;;;;;;15.27;100.00;100262.97;5056487;28;20292;-81
2023/10/09 09:08:23;;;;;;;44.03;29.00;;;;;;;15.34;100.00;100268.84;5056347;28;20220;-85
2023/10/09 09:10:58;;;;;;;38.23;26.53;;;;;;;15.37;100.00;100281.84;5057093;28;20244;-83
2023/10/09 09:13:24;;;;;;;43.77;28.43;;;;;;;15.74;100.00;100285.59;5057021;28;20204;-84
2023/10/09 09:15:53;;;;;;;43.50;28.20;;;;;;;15.85;100.00;100300.91;5057158;28;20287;-82
2023/10/09 09:18:22;;;;;;;43.90;28.83;;;;;;;15.94;100.00;100320.75;5056077;28;20213;-80
2023/10/09 09:20:53;;;;;;;46.63;28.67;;;;;;;15.95;100.00;100328.56;5056650;28;20220;-80
2023/10/09 09:23:23;;;;;;;39.43;30.10;;;;;;;15.63;100.00;100335.16;5055590;28;20209;-80
2023/10/09 09:25:58;;;;;;;43.90;29.50;;;;;;;15.91;100.00;100334.03;5056690;28;20196;-82
2023/10/09 09:28:26;;;;;;;44.03;29.00;;;;;;;15.85;100.00;100343.88;5055476;28;20208;-83
2023/10/09 09:30:54;;;;;;;42.43;27.37;;;;;;;15.93;100.00;100348.81;5057108;28;20226;-83
2023/10/09 09:33:38;;;;;;;38.90;27.70;;;;;;;15.95;100.00;100341.72;5057472;28;20300;-83
2023/10/09 09:36:06;;;;;;;44.43;28.57;;;;;;;15.99;100.00;100343.28;5057481;28;20754;-83
2023/10/09 09:38:42;;;;;;;40.13;27.80;;;;;;;16.05;100.00;100357.97;5057321;28;20239;-83
2023/10/09 09:41:09;;;;;;;42.03;27.43;;;;;;;16.01;100.00;100354.63;5056298;28;20225;-81
2023/10/09 09:43:40;;;;;;;41.20;27.47;;;;;;;16.02;100.00;100344.97;5054322;28;20212;-82
2023/10/09 09:46:10;;;;;;;31.13;26.27;;;;;;;16.10;100.00;100352.53;5054340;28;20231;-80
2023/10/09 09:48:44;;;;;;;37.67;27.60;;;;;;;16.20;100.00;100357.31;5054999;28;20206;-83
2023/10/09 09:51:20;;;;;;;42.87;27.13;;;;;;;16.24;100.00;100355.41;5055557;28;20228;-83
2023/10/09 09:53:49;;;;;;;35.53;27.20;;;;;;;16.16;100.00;100381.22;5049830;28;20199;-82
2023/10/09 09:56:18;;;;;;;38.40;27.13;;;;;;;16.13;100.00;100394.53;5056487;28;20229;-82
2023/10/09 09:58:53;;;;;;;30.67;27.03;;;;;;;16.06;100.00;100402.69;5055894;28;20197;-82
2023/10/09 10:01:24;;;;;;;35.67;27.60;;;;;;;16.09;100.00;100430.66;5056703;28;20600;-82
2023/10/09 10:03:58;;;;;;;41.67;30.63;;;;;;;16.05;100.00;100403.63;5056403;28;20199;-81
2023/10/09 10:06:28;;;;;;;40.83;31.47;;;;;;;16.08;100.00;100392.94;5058918;28;20213;-79
2023/10/09 10:08:55;;;;;;;45.60;33.00;;;;;;;16.19;100.00;100404.78;5061397;28;20819;-81
2023/10/09 10:11:45;;;;;;;47.77;33.43;;;;;;;16.17;100.00;100396.94;5059973;28;20227;-81
2023/10/09 10:14:19;;;;;;;38.33;33.27;;;;;;;16.18;100.00;100406.56;5062107;28;20196;-82
2023/10/09 10:17:01;;;;;;;39.97;33.10;;;;;;;16.18;100.00;100411.00;5050945;28;20215;-83
2023/10/09 10:20:26;;;;;;;36.70;32.63;;;;;;;16.25;100.00;100426.47;5052857;28;20204;-81
2023/10/09 10:23:17;;;;;;;39.53;32.40;;;;;;;16.15;100.00;100426.91;5048960;28;20212;-80
2023/10/09 10:25:49;;;;;;;40.67;33.53;;;;;;;16.17;100.00;100435.59;5056869;28;20205;-81
2023/10/09 10:28:42;;;;;;;37.70;33.00;;;;;;;16.26;100.00;100433.44;5055833;28;20206;-81
2023/10/09 10:31:09;;;;;;;41.77;33.37;;;;;;;16.08;100.00;100428.97;5055625;28;20235;-81
2023/10/09 10:34:06;;;;;;;34.60;31.33;;;;;;;16.03;100.00;100437.03;5055615;28;20210;-81
2023/10/09 10:36:34;;;;;;;35.03;31.33;;;;;;;16.07;100.00;100440.41;5057164;28;20221;-81
2023/10/09 10:39:05;;;;;;;39.30;33.50;;;;;;;15.85;100.00;100419.38;5061148;28;20239;-81
2023/10/09 10:41:36;;;;;;;36.57;32.67;;;;;;;15.94;100.00;100412.88;5060465;28;20277;-81
2023/10/09 10:44:33;;;;;;;38.57;33.97;;;;;;;15.68;100.00;100394.56;5057444;28;20580;-82
2023/10/09 10:46:52;;;;;;;41.30;36.27;;;;;;;15.63;100.00;100382.53;5058310;28;20197;-82
2023/10/09 10:49:21;;;;;;;40.87;34.83;;;;;;;15.67;100.00;100373.56;5058011;28;20230;-80
2023/10/09 10:52:01;;;;;;;41.67;35.83;;;;;;;15.72;100.00;100378.63;5058197;28;20224;-81
2023/10/09 10:54:45;;;;;;;33.87;30.27;;;;;;;15.87;100.00;100389.41;5058181;28;20208;-81
2023/10/09 10:57:19;;;;;;;30.80;27.53;;;;;;;15.69;100.00;100393.63;5058324;28;20614;-80
2023/10/09 10:59:49;;;;;;;34.10;28.20;;;;;;;15.79;100.00;100398.56;5057168;28;20223;-82
2023/10/09 11:02:27;;;;;;;32.30;28.83;;;;;;;15.74;100.00;100387.34;5058867;28;20249;-82
2023/10/09 11:05:14;;;;;;;31.60;28.20;;;;;;;15.59;100.00;100399.34;5050683;28;20310;-80
2023/10/09 11:07:42;;;;;;;35.17;30.77;;;;;;;15.57;100.00;100394.16;5057907;28;20575;-82
2023/10/09 11:10:10;;;;;;;37.17;31.60;;;;;;;15.60;100.00;100391.41;5057138;28;20252;-81
2023/10/09 11:13:30;;;;;;;39.77;34.27;;;;;;;15.55;100.00;100390.72;5057126;28;20253;-80
2023/10/09 11:15:43;;;;;;;42.83;35.83;;;;;;;15.69;100.00;100390.16;5056755;28;20213;-80
2023/10/09 11:18:16;;;;;;;46.53;36.37;;;;;;;15.70;100.00;100381.34;5057489;28;20214;-82
2023/10/09 11:20:56;;;;;;;43.70;37.03;;;;;;;15.61;100.00;100395.72;5057129;28;20220;-81
2023/10/09 11:23:36;;;;;;;47.40;36.50;;;;;;;15.79;100.00;100404.69;5056423;28;20215;-82
2023/10/09 11:26:21;;;;;;;47.70;36.93;;;;;;;15.69;100.00;100409.44;5056956;28;20205;-80
2023/10/09 11:28:52;;;;;;;49.60;37.87;;;;;;;15.68;100.00;100399.00;5055065;28;20215;-79
2023/10/09 11:31:17;;;;;;;52.43;39.83;;;;;;;15.54;100.00;100396.91;5056707;28;20674;-80
2023/10/09 11:33:45;;;;;;;55.23;40.83;;;;;;;15.63;100.00;100403.56;5054736;28;20287;-80
2023/10/09 11:36:11;;;;;;;54.97;40.43;;;;;;;15.74;100.00;100401.41;5054764;28;20279;-79
2023/10/09 11:38:45;;;;;;;52.63;39.00;;;;;;;15.82;100.00;100406.34;5054291;28;20215;-81
2023/10/09 11:41:24;;;;;;;59.43;43.03;;;;;;;15.75;100.00;100397.84;5053782;28;20663;-80
2023/10/09 11:43:51;;;;;;;52.50;39.47;;;;;;;15.87;100.00;100407.00;5054174;28;20690;-80
2023/10/09 11:46:36;;;;;;;45.57;36.87;;;;;;;15.72;100.00;100407.59;5054229;28;20212;-79
2023/10/09 11:49:25;;;;;;;47.40;37.20;;;;;;;15.66;100.00;100416.63;5054093;28;20203;-79
2023/10/09 11:52:33;;;;;;;47.70;36.37;;;;;;;15.78;100.00;100417.94;5053426;28;20719;-80
2023/10/09 11:54:51;;;;;;;42.07;33.87;;;;;;;15.83;100.00;100415.94;5055354;28;20212;-82
2023/10/09 11:57:30;;;;;;;39.40;34.70;;;;;;;15.80;100.00;100424.84;5055957;28;20297;-79
2023/10/09 11:59:57;;;;;;;38.67;32.10;;;;;;;15.93;100.00;100424.31;5063552;28;20206;-79
2023/10/09 12:02:23;;;;;;;33.33;30.10;;;;;;;16.03;100.00;100429.13;5056095;28;20235;-81
2023/10/09 12:04:50;;;;;;;33.93;30.57;;;;;;;15.99;100.00;100424.91;5057388;28;20204;-81
2023/10/09 12:07:20;;;;;;;31.93;28.67;;;;;;;15.93;100.00;100437.47;5054171;28;20572;-79
2023/10/09 12:09:48;;;;;;;29.17;26.90;;;;;;;15.91;100.00;100437.53;5053260;28;20594;-78
2023/10/09 12:12:16;;;;;;;27.63;25.40;;;;;;;16.06;100.00;100438.69;5052293;28;20607;-80
2023/10/09 12:14:43;;;;;;;24.40;22.23;;;;;;;16.02;100.00;100434.47;5052918;28;20236;-78
2023/10/09 12:17:10;;;;;;;21.47;19.87;;;;;;;15.98;100.00;100433.75;5045741;28;20205;-79
2023/10/09 12:19:38;;;;;;;19.20;17.70;;;;;;;15.98;100.00;100440.78;5048414;28;20212;-78
2023/10/09 12:22:06;;;;;;;16.80;15.67;;;;;;;16.03;100.00;100442.28;5053063;28;20220;-78
2023/10/09 12:24:33;;;;;;;15.67;14.53;;;;;;;15.84;100.00;100446.63;4355274;28;10000710;-78
2023/10/09 12:27:01;;;;;;;14.93;13.80;;;;;;;16.02;100.00;100451.13;5050122;28;20209;-78